createdAt,value
2023-05-10T00:03:08.595Z,997.949
2023-05-10T00:23:07.479Z,997.812
2023-05-10T00:43:07.226Z,997.627
2023-05-10T01:03:09.386Z,997.561
2023-05-10T01:23:07.408Z,997.624
2023-05-10T01:43:07.269Z,997.69
2023-05-10T02:03:08.543Z,997.849
2023-05-10T02:23:07.491Z,997.891
2023-05-10T02:43:07.329Z,997.901
2023-05-10T03:03:08.400Z,997.922
2023-05-10T03:23:08.710Z,998.008
2023-05-10T03:43:07.667Z,998.142
2023-05-10T04:03:09.009Z,998.436
2023-05-10T04:23:07.787Z,998.627
2023-05-10T04:43:07.969Z,998.802
2023-05-10T05:03:09.138Z,999.035
2023-05-10T05:23:07.993Z,999.328
2023-05-10T05:43:07.848Z,999.566
2023-05-10T06:03:09.172Z,999.714
2023-05-10T06:23:08.105Z,999.909
2023-05-10T06:43:07.937Z,1000.112
2023-05-10T07:03:09.062Z,1000.302
2023-05-10T07:23:07.872Z,1000.37
2023-05-10T07:43:07.921Z,1000.414
2023-05-10T08:03:09.449Z,1000.466
2023-05-10T08:23:07.301Z,1000.67
2023-05-10T08:43:07.179Z,1000.778
2023-05-10T09:03:09.329Z,1000.966
2023-05-10T09:23:07.339Z,1001.124
2023-05-10T09:43:07.277Z,1001.216
2023-05-10T10:03:08.618Z,1001.204
2023-05-10T10:23:07.449Z,1001.086
2023-05-10T10:43:07.358Z,1001.013
2023-05-10T11:03:08.811Z,1000.959
2023-05-10T11:23:07.793Z,1001.205
2023-05-10T11:43:07.703Z,1001.415
2023-05-10T12:03:09.138Z,1001.582
2023-05-10T12:23:08.090Z,1001.649
2023-05-10T12:43:08.092Z,1001.858
2023-05-10T13:03:09.053Z,1001.987
2023-05-10T13:23:07.920Z,1002.065
2023-05-10T13:43:07.955Z,1002.247
2023-05-10T14:03:09.109Z,1002.365
2023-05-10T14:23:12.422Z,1002.399
2023-05-10T14:43:07.533Z,1002.126
2023-05-10T15:03:09.011Z,1002.151
2023-05-10T15:23:07.276Z,1002.344
2023-05-10T15:43:07.567Z,1002.465
2023-05-10T16:03:08.646Z,1002.625
2023-05-10T16:23:07.540Z,1003.148
2023-05-10T16:43:07.588Z,1003.265
2023-05-10T17:03:08.844Z,1003.292
2023-05-10T17:23:07.843Z,1003.429
2023-05-10T17:43:07.887Z,1003.679
2023-05-10T18:03:09.209Z,1003.679
2023-05-10T18:23:07.223Z,1003.732
2023-05-10T18:43:07.287Z,1003.79
2023-05-10T19:03:08.500Z,1003.901
2023-05-10T19:43:08.062Z,1004.146
2023-05-10T20:03:10.646Z,1004.374
2023-05-10T20:23:07.469Z,1004.236
2023-05-10T20:43:07.665Z,1004.256
2023-05-10T21:03:08.983Z,1004.29
2023-05-10T21:23:08.125Z,1004.336
2023-05-10T21:43:07.540Z,1004.367
2023-05-10T22:03:09.463Z,1004.314
2023-05-10T22:23:07.282Z,1004.414
2023-05-10T22:43:08.000Z,1004.523
2023-05-10T23:03:08.732Z,1004.535
2023-05-10T23:23:07.553Z,1004.6
2023-05-10T23:43:07.267Z,1004.525
